sensor_id;sensor_type;location;lat;lon;timestamp;P1;durP1;ratioP1;P2;durP2;ratioP2
57231;SDS011;43488;46.934;8.276;2022-09-09T00:02:09;588.58;;;408.27;;
57231;SDS011;43488;46.934;8.276;2022-09-09T00:05:00;587.60;;;399.15;;
57231;SDS011;43488;46.934;8.276;2022-09-09T00:08:00;600.70;;;331.73;;
57231;SDS011;43488;46.934;8.276;2022-09-09T00:10:32;593.67;;;316.83;;
57231;SDS011;43488;46.934;8.276;2022-09-09T00:15:48;574.08;;;378.95;;
57231;SDS011;43488;46.934;8.276;2022-09-09T00:21:36;591.78;;;321.60;;
57231;SDS011;43488;46.934;8.276;2022-09-09T00:27:07;586.97;;;400.60;;
57231;SDS011;43488;46.934;8.276;2022-09-09T00:30:23;590.42;;;319.73;;
57231;SDS011;43488;46.934;8.276;2022-09-09T00:32:58;590.63;;;320.85;;
57231;SDS011;43488;46.934;8.276;2022-09-09T00:35:33;593.88;;;321.77;;
57231;SDS011;43488;46.934;8.276;2022-09-09T00:38:06;592.83;;;321.40;;
57231;SDS011;43488;46.934;8.276;2022-09-09T00:41:01;594.70;;;321.33;;
57231;SDS011;43488;46.934;8.276;2022-09-09T00:43:46;582.50;;;394.00;;
57231;SDS011;43488;46.934;8.276;2022-09-09T00:50:00;594.42;;;319.90;;
57231;SDS011;43488;46.934;8.276;2022-09-09T00:55:57;593.97;;;327.63;;
57231;SDS011;43488;46.934;8.276;2022-09-09T00:58:38;586.47;;;315.15;;
57231;SDS011;43488;46.934;8.276;2022-09-09T01:01:10;598.88;;;327.98;;
57231;SDS011;43488;46.934;8.276;2022-09-09T01:03:49;591.45;;;319.70;;
57231;SDS011;43488;46.934;8.276;2022-09-09T01:09:13;591.28;;;322.02;;
57231;SDS011;43488;46.934;8.276;2022-09-09T01:14:58;578.45;;;388.92;;
57231;SDS011;43488;46.934;8.276;2022-09-09T01:17:49;604.03;;;343.67;;
57231;SDS011;43488;46.934;8.276;2022-09-09T01:20:43;590.63;;;317.17;;
57231;SDS011;43488;46.934;8.276;2022-09-09T01:26:46;591.17;;;308.65;;
57231;SDS011;43488;46.934;8.276;2022-09-09T01:29:14;592.63;;;311.50;;
57231;SDS011;43488;46.934;8.276;2022-09-09T01:31:54;590.67;;;319.35;;
57231;SDS011;43488;46.934;8.276;2022-09-09T01:34:36;585.83;;;301.17;;
57231;SDS011;43488;46.934;8.276;2022-09-09T01:37:07;590.58;;;287.88;;
57231;SDS011;43488;46.934;8.276;2022-09-09T01:39:37;599.40;;;287.63;;
57231;SDS011;43488;46.934;8.276;2022-09-09T01:42:12;563.17;;;354.80;;
57231;SDS011;43488;46.934;8.276;2022-09-09T01:44:42;564.60;;;358.13;;
57231;SDS011;43488;46.934;8.276;2022-09-09T01:47:10;573.33;;;276.33;;
57231;SDS011;43488;46.934;8.276;2022-09-09T01:49:37;567.08;;;361.67;;
57231;SDS011;43488;46.934;8.276;2022-09-09T01:52:05;564.42;;;358.98;;
57231;SDS011;43488;46.934;8.276;2022-09-09T01:54:33;570.78;;;370.80;;
57231;SDS011;43488;46.934;8.276;2022-09-09T02:00:03;569.75;;;378.88;;
57231;SDS011;43488;46.934;8.276;2022-09-09T02:03:00;583.65;;;305.15;;
57231;SDS011;43488;46.934;8.276;2022-09-09T02:05:53;569.67;;;373.20;;
57231;SDS011;43488;46.934;8.276;2022-09-09T02:08:42;570.72;;;380.73;;
57231;SDS011;43488;46.934;8.276;2022-09-09T02:11:19;563.67;;;364.20;;
57231;SDS011;43488;46.934;8.276;2022-09-09T02:13:55;568.85;;;375.77;;
57231;SDS011;43488;46.934;8.276;2022-09-09T02:16:39;558.20;;;354.35;;
57231;SDS011;43488;46.934;8.276;2022-09-09T02:19:31;589.35;;;301.30;;
57231;SDS011;43488;46.934;8.276;2022-09-09T02:22:02;563.53;;;385.73;;
57231;SDS011;43488;46.934;8.276;2022-09-09T02:24:32;567.20;;;371.70;;
57231;SDS011;43488;46.934;8.276;2022-09-09T02:27:03;587.80;;;294.20;;
57231;SDS011;43488;46.934;8.276;2022-09-09T02:29:36;567.58;;;369.60;;
57231;SDS011;43488;46.934;8.276;2022-09-09T02:32:11;567.15;;;368.63;;
57231;SDS011;43488;46.934;8.276;2022-09-09T02:34:47;574.40;;;280.80;;
57231;SDS011;43488;46.934;8.276;2022-09-09T02:37:23;581.53;;;294.55;;
57231;SDS011;43488;46.934;8.276;2022-09-09T02:39:57;579.33;;;286.33;;
57231;SDS011;43488;46.934;8.276;2022-09-09T02:42:25;584.45;;;288.08;;
57231;SDS011;43488;46.934;8.276;2022-09-09T02:44:52;587.53;;;294.98;;
57231;SDS011;43488;46.934;8.276;2022-09-09T02:47:32;604.80;;;367.75;;
57231;SDS011;43488;46.934;8.276;2022-09-09T02:50:07;579.30;;;288.75;;
57231;SDS011;43488;46.934;8.276;2022-09-09T02:52:48;567.50;;;365.27;;
57231;SDS011;43488;46.934;8.276;2022-09-09T02:56:01;551.13;;;365.58;;
57231;SDS011;43488;46.934;8.276;2022-09-09T02:58:36;562.22;;;355.48;;
57231;SDS011;43488;46.934;8.276;2022-09-09T03:01:04;582.40;;;297.70;;
57231;SDS011;43488;46.934;8.276;2022-09-09T03:03:31;611.65;;;296.75;;
57231;SDS011;43488;46.934;8.276;2022-09-09T03:05:59;609.58;;;300.27;;
57231;SDS011;43488;46.934;8.276;2022-09-09T03:08:27;596.58;;;365.75;;
57231;SDS011;43488;46.934;8.276;2022-09-09T03:10:54;559.42;;;358.38;;
57231;SDS011;43488;46.934;8.276;2022-09-09T03:13:22;578.17;;;288.55;;
57231;SDS011;43488;46.934;8.276;2022-09-09T03:15:49;603.10;;;391.10;;
57231;SDS011;43488;46.934;8.276;2022-09-09T03:18:18;608.30;;;296.48;;
57231;SDS011;43488;46.934;8.276;2022-09-09T03:20:45;585.83;;;286.25;;
57231;SDS011;43488;46.934;8.276;2022-09-09T03:23:17;572.30;;;363.30;;
57231;SDS011;43488;46.934;8.276;2022-09-09T03:25:48;617.97;;;310.65;;
57231;SDS011;43488;46.934;8.276;2022-09-09T03:28:18;603.35;;;296.17;;
57231;SDS011;43488;46.934;8.276;2022-09-09T03:30:47;561.10;;;352.45;;
57231;SDS011;43488;46.934;8.276;2022-09-09T03:33:15;578.72;;;290.30;;
57231;SDS011;43488;46.934;8.276;2022-09-09T03:35:46;556.05;;;352.00;;
57231;SDS011;43488;46.934;8.276;2022-09-09T03:38:17;580.50;;;280.67;;
57231;SDS011;43488;46.934;8.276;2022-09-09T03:40:48;556.58;;;374.13;;
57231;SDS011;43488;46.934;8.276;2022-09-09T03:43:17;568.03;;;372.33;;
57231;SDS011;43488;46.934;8.276;2022-09-09T03:45:45;582.60;;;294.27;;
57231;SDS011;43488;46.934;8.276;2022-09-09T03:48:14;550.10;;;362.45;;
57231;SDS011;43488;46.934;8.276;2022-09-09T03:50:46;587.03;;;303.25;;
57231;SDS011;43488;46.934;8.276;2022-09-09T03:53:16;576.67;;;282.77;;
57231;SDS011;43488;46.934;8.276;2022-09-09T03:55:47;564.13;;;370.30;;
57231;SDS011;43488;46.934;8.276;2022-09-09T03:58:19;585.65;;;301.08;;
57231;SDS011;43488;46.934;8.276;2022-09-09T04:00:55;579.28;;;297.40;;
57231;SDS011;43488;46.934;8.276;2022-09-09T04:03:25;579.75;;;297.55;;
57231;SDS011;43488;46.934;8.276;2022-09-09T04:05:54;560.58;;;363.50;;
57231;SDS011;43488;46.934;8.276;2022-09-09T04:08:23;563.58;;;363.20;;
57231;SDS011;43488;46.934;8.276;2022-09-09T04:10:52;580.50;;;299.33;;
57231;SDS011;43488;46.934;8.276;2022-09-09T04:13:24;588.88;;;307.58;;
57231;SDS011;43488;46.934;8.276;2022-09-09T04:15:57;562.83;;;363.52;;
57231;SDS011;43488;46.934;8.276;2022-09-09T04:18:26;564.45;;;367.33;;
57231;SDS011;43488;46.934;8.276;2022-09-09T04:20:57;557.97;;;359.05;;
57231;SDS011;43488;46.934;8.276;2022-09-09T04:23:25;562.42;;;358.65;;
57231;SDS011;43488;46.934;8.276;2022-09-09T04:25:56;586.10;;;306.30;;
57231;SDS011;43488;46.934;8.276;2022-09-09T04:28:26;577.95;;;295.45;;
57231;SDS011;43488;46.934;8.276;2022-09-09T04:30:57;584.33;;;297.30;;
57231;SDS011;43488;46.934;8.276;2022-09-09T04:33:31;584.55;;;299.52;;
57231;SDS011;43488;46.934;8.276;2022-09-09T04:35:58;584.00;;;302.88;;
57231;SDS011;43488;46.934;8.276;2022-09-09T04:38:26;563.00;;;364.55;;
57231;SDS011;43488;46.934;8.276;2022-09-09T04:40:53;561.67;;;366.58;;
57231;SDS011;43488;46.934;8.276;2022-09-09T04:43:21;575.83;;;295.92;;
57231;SDS011;43488;46.934;8.276;2022-09-09T04:45:50;565.28;;;378.08;;
57231;SDS011;43488;46.934;8.276;2022-09-09T04:48:18;561.35;;;363.80;;
57231;SDS011;43488;46.934;8.276;2022-09-09T04:50:57;581.70;;;306.48;;
57231;SDS011;43488;46.934;8.276;2022-09-09T04:53:28;590.40;;;320.70;;
57231;SDS011;43488;46.934;8.276;2022-09-09T04:56:05;567.80;;;374.73;;
57231;SDS011;43488;46.934;8.276;2022-09-09T04:58:36;587.13;;;308.58;;
57231;SDS011;43488;46.934;8.276;2022-09-09T05:01:09;568.97;;;376.30;;
57231;SDS011;43488;46.934;8.276;2022-09-09T05:03:39;569.22;;;377.45;;
57231;SDS011;43488;46.934;8.276;2022-09-09T05:06:10;588.47;;;316.13;;
57231;SDS011;43488;46.934;8.276;2022-09-09T05:08:43;572.08;;;385.58;;
57231;SDS011;43488;46.934;8.276;2022-09-09T05:13:53;569.72;;;378.98;;
57231;SDS011;43488;46.934;8.276;2022-09-09T05:16:23;585.35;;;321.23;;
57231;SDS011;43488;46.934;8.276;2022-09-09T05:18:50;585.15;;;305.60;;
57231;SDS011;43488;46.934;8.276;2022-09-09T05:21:18;576.03;;;297.38;;
57231;SDS011;43488;46.934;8.276;2022-09-09T05:23:47;572.22;;;385.63;;
57231;SDS011;43488;46.934;8.276;2022-09-09T05:26:15;571.78;;;387.58;;
57231;SDS011;43488;46.934;8.276;2022-09-09T05:28:45;587.70;;;311.60;;
57231;SDS011;43488;46.934;8.276;2022-09-09T05:31:15;590.75;;;317.95;;
57231;SDS011;43488;46.934;8.276;2022-09-09T05:33:45;575.20;;;292.60;;
57231;SDS011;43488;46.934;8.276;2022-09-09T05:36:16;575.10;;;378.23;;
57231;SDS011;43488;46.934;8.276;2022-09-09T05:38:46;590.05;;;321.75;;
57231;SDS011;43488;46.934;8.276;2022-09-09T05:41:14;561.55;;;386.35;;
57231;SDS011;43488;46.934;8.276;2022-09-09T05:43:42;568.97;;;377.42;;
57231;SDS011;43488;46.934;8.276;2022-09-09T05:46:14;585.95;;;402.55;;
57231;SDS011;43488;46.934;8.276;2022-09-09T05:48:49;572.72;;;384.05;;
57231;SDS011;43488;46.934;8.276;2022-09-09T05:51:19;565.63;;;373.48;;
57231;SDS011;43488;46.934;8.276;2022-09-09T05:53:56;581.25;;;310.35;;
57231;SDS011;43488;46.934;8.276;2022-09-09T05:56:27;570.53;;;386.88;;
57231;SDS011;43488;46.934;8.276;2022-09-09T05:58:56;568.72;;;379.13;;
57231;SDS011;43488;46.934;8.276;2022-09-09T06:01:31;571.95;;;383.13;;
57231;SDS011;43488;46.934;8.276;2022-09-09T06:04:00;578.40;;;302.50;;
57231;SDS011;43488;46.934;8.276;2022-09-09T06:06:33;568.30;;;378.10;;
57231;SDS011;43488;46.934;8.276;2022-09-09T06:09:04;564.65;;;368.85;;
57231;SDS011;43488;46.934;8.276;2022-09-09T06:11:37;566.28;;;376.55;;
57231;SDS011;43488;46.934;8.276;2022-09-09T06:14:06;572.85;;;387.63;;
57231;SDS011;43488;46.934;8.276;2022-09-09T06:16:36;583.47;;;305.13;;
57231;SDS011;43488;46.934;8.276;2022-09-09T06:19:04;568.90;;;379.95;;
57231;SDS011;43488;46.934;8.276;2022-09-09T06:21:34;565.28;;;371.35;;
57231;SDS011;43488;46.934;8.276;2022-09-09T06:24:04;571.80;;;386.95;;
57231;SDS011;43488;46.934;8.276;2022-09-09T06:26:33;567.05;;;375.33;;
57231;SDS011;43488;46.934;8.276;2022-09-09T06:29:03;560.88;;;365.25;;
57231;SDS011;43488;46.934;8.276;2022-09-09T06:31:32;578.72;;;303.08;;
57231;SDS011;43488;46.934;8.276;2022-09-09T06:34:06;587.70;;;311.42;;
57231;SDS011;43488;46.934;8.276;2022-09-09T06:36:35;577.15;;;395.60;;
57231;SDS011;43488;46.934;8.276;2022-09-09T06:39:05;569.90;;;376.70;;
57231;SDS011;43488;46.934;8.276;2022-09-09T06:41:33;589.78;;;315.42;;
57231;SDS011;43488;46.934;8.276;2022-09-09T06:44:00;573.00;;;385.40;;
57231;SDS011;43488;46.934;8.276;2022-09-09T06:46:30;587.47;;;318.17;;
57231;SDS011;43488;46.934;8.276;2022-09-09T06:48:59;590.28;;;316.25;;
57231;SDS011;43488;46.934;8.276;2022-09-09T06:51:28;575.47;;;388.05;;
57231;SDS011;43488;46.934;8.276;2022-09-09T06:53:58;589.13;;;314.92;;
57231;SDS011;43488;46.934;8.276;2022-09-09T06:56:32;585.72;;;418.50;;
57231;SDS011;43488;46.934;8.276;2022-09-09T06:59:03;582.00;;;400.20;;
57231;SDS011;43488;46.934;8.276;2022-09-09T07:01:33;577.42;;;394.58;;
57231;SDS011;43488;46.934;8.276;2022-09-09T07:04:07;582.83;;;401.52;;
57231;SDS011;43488;46.934;8.276;2022-09-09T07:06:36;582.33;;;406.60;;
57231;SDS011;43488;46.934;8.276;2022-09-09T07:09:07;589.58;;;311.75;;
57231;SDS011;43488;46.934;8.276;2022-09-09T07:11:38;589.28;;;313.90;;
57231;SDS011;43488;46.934;8.276;2022-09-09T07:14:11;578.55;;;394.40;;
57231;SDS011;43488;46.934;8.276;2022-09-09T07:16:42;575.97;;;388.23;;
57231;SDS011;43488;46.934;8.276;2022-09-09T07:19:11;576.30;;;389.77;;
57231;SDS011;43488;46.934;8.276;2022-09-09T07:21:40;591.22;;;323.92;;
57231;SDS011;43488;46.934;8.276;2022-09-09T07:24:09;597.20;;;326.85;;
57231;SDS011;43488;46.934;8.276;2022-09-09T07:26:37;580.05;;;399.15;;
57231;SDS011;43488;46.934;8.276;2022-09-09T07:29:06;580.40;;;395.50;;
57231;SDS011;43488;46.934;8.276;2022-09-09T07:31:35;576.15;;;389.20;;
57231;SDS011;43488;46.934;8.276;2022-09-09T07:34:06;585.75;;;404.55;;
57231;SDS011;43488;46.934;8.276;2022-09-09T07:36:34;600.38;;;335.15;;
57231;SDS011;43488;46.934;8.276;2022-09-09T07:39:06;597.20;;;329.73;;
57231;SDS011;43488;46.934;8.276;2022-09-09T07:41:38;580.95;;;405.30;;
57231;SDS011;43488;46.934;8.276;2022-09-09T07:44:11;602.15;;;338.15;;
57231;SDS011;43488;46.934;8.276;2022-09-09T07:46:44;600.95;;;338.35;;
57231;SDS011;43488;46.934;8.276;2022-09-09T07:49:11;598.70;;;330.80;;
57231;SDS011;43488;46.934;8.276;2022-09-09T07:51:41;583.38;;;404.90;;
57231;SDS011;43488;46.934;8.276;2022-09-09T07:54:13;598.88;;;341.15;;
57231;SDS011;43488;46.934;8.276;2022-09-09T07:59:10;592.88;;;317.48;;
57231;SDS011;43488;46.934;8.276;2022-09-09T08:01:48;584.35;;;406.40;;
57231;SDS011;43488;46.934;8.276;2022-09-09T08:04:21;578.80;;;396.95;;
57231;SDS011;43488;46.934;8.276;2022-09-09T08:06:51;580.10;;;403.42;;
57231;SDS011;43488;46.934;8.276;2022-09-09T08:09:21;594.47;;;328.13;;
57231;SDS011;43488;46.934;8.276;2022-09-09T08:11:55;585.47;;;396.02;;
57231;SDS011;43488;46.934;8.276;2022-09-09T08:14:23;582.22;;;402.73;;
57231;SDS011;43488;46.934;8.276;2022-09-09T08:16:51;585.83;;;396.70;;
57231;SDS011;43488;46.934;8.276;2022-09-09T08:19:20;578.75;;;397.63;;
57231;SDS011;43488;46.934;8.276;2022-09-09T08:21:48;604.90;;;340.98;;
57231;SDS011;43488;46.934;8.276;2022-09-09T08:24:17;598.97;;;329.50;;
57231;SDS011;43488;46.934;8.276;2022-09-09T08:26:47;605.88;;;347.48;;
57231;SDS011;43488;46.934;8.276;2022-09-09T08:29:17;598.03;;;330.17;;
57231;SDS011;43488;46.934;8.276;2022-09-09T08:31:50;583.45;;;394.60;;
57231;SDS011;43488;46.934;8.276;2022-09-09T08:34:21;601.42;;;342.98;;
57231;SDS011;43488;46.934;8.276;2022-09-09T08:36:49;591.00;;;412.42;;
57231;SDS011;43488;46.934;8.276;2022-09-09T08:39:18;601.25;;;336.02;;
57231;SDS011;43488;46.934;8.276;2022-09-09T08:41:55;593.60;;;415.20;;
57231;SDS011;43488;46.934;8.276;2022-09-09T08:50:22;614.13;;;345.98;;
57231;SDS011;43488;46.934;8.276;2022-09-09T08:55:52;586.63;;;393.50;;
57231;SDS011;43488;46.934;8.276;2022-09-09T08:58:27;593.67;;;417.52;;
57231;SDS011;43488;46.934;8.276;2022-09-09T09:03:50;592.92;;;409.20;;
57231;SDS011;43488;46.934;8.276;2022-09-09T09:06:31;599.20;;;412.43;;
57231;SDS011;43488;46.934;8.276;2022-09-09T09:09:45;608.40;;;342.88;;
57231;SDS011;43488;46.934;8.276;2022-09-09T09:12:39;592.63;;;389.20;;
57231;SDS011;43488;46.934;8.276;2022-09-09T09:15:16;618.72;;;343.88;;
57231;SDS011;43488;46.934;8.276;2022-09-09T09:17:52;595.00;;;390.90;;
57231;SDS011;43488;46.934;8.276;2022-09-09T09:20:27;617.40;;;324.30;;
57231;SDS011;43488;46.934;8.276;2022-09-09T09:23:12;605.28;;;307.42;;
57231;SDS011;43488;46.934;8.276;2022-09-09T09:25:50;615.97;;;328.35;;
57231;SDS011;43488;46.934;8.276;2022-09-09T09:28:27;617.10;;;331.38;;
57231;SDS011;43488;46.934;8.276;2022-09-09T09:31:06;615.40;;;324.77;;
57231;SDS011;43488;46.934;8.276;2022-09-09T09:36:13;594.17;;;382.23;;
57231;SDS011;43488;46.934;8.276;2022-09-09T09:38:58;597.03;;;388.75;;
57231;SDS011;43488;46.934;8.276;2022-09-09T09:41:31;591.92;;;383.83;;
57231;SDS011;43488;46.934;8.276;2022-09-09T09:44:04;607.92;;;317.02;;
57231;SDS011;43488;46.934;8.276;2022-09-09T09:46:33;620.97;;;331.05;;
57231;SDS011;43488;46.934;8.276;2022-09-09T09:49:02;599.53;;;391.42;;
57231;SDS011;43488;46.934;8.276;2022-09-09T09:51:35;599.28;;;405.60;;
57231;SDS011;43488;46.934;8.276;2022-09-09T09:56:42;592.50;;;373.20;;
57231;SDS011;43488;46.934;8.276;2022-09-09T09:59:22;621.05;;;331.65;;
57231;SDS011;43488;46.934;8.276;2022-09-09T10:02:05;598.40;;;350.55;;
57231;SDS011;43488;46.934;8.276;2022-09-09T10:05:00;602.00;;;375.77;;
57231;SDS011;43488;46.934;8.276;2022-09-09T10:07:38;594.33;;;383.33;;
57231;SDS011;43488;46.934;8.276;2022-09-09T10:10:12;627.47;;;347.73;;
57231;SDS011;43488;46.934;8.276;2022-09-09T10:18:45;620.20;;;340.83;;
57231;SDS011;43488;46.934;8.276;2022-09-09T10:36:28;604.53;;;408.33;;
57231;SDS011;43488;46.934;8.276;2022-09-09T10:39:01;590.10;;;356.38;;
57231;SDS011;43488;46.934;8.276;2022-09-09T10:47:28;624.20;;;363.92;;
57231;SDS011;43488;46.934;8.276;2022-09-09T10:50:40;618.13;;;353.17;;
57231;SDS011;43488;46.934;8.276;2022-09-09T10:56:20;615.55;;;355.52;;
57231;SDS011;43488;46.934;8.276;2022-09-09T10:58:52;614.72;;;422.50;;
57231;SDS011;43488;46.934;8.276;2022-09-09T11:01:41;613.80;;;347.33;;
57231;SDS011;43488;46.934;8.276;2022-09-09T11:04:22;601.63;;;416.67;;
57231;SDS011;43488;46.934;8.276;2022-09-09T11:07:02;604.63;;;429.83;;
57231;SDS011;43488;46.934;8.276;2022-09-09T11:09:37;605.75;;;413.52;;
57231;SDS011;43488;46.934;8.276;2022-09-09T11:12:18;617.63;;;426.73;;
57231;SDS011;43488;46.934;8.276;2022-09-09T11:14:49;634.43;;;328.63;;
57231;SDS011;43488;46.934;8.276;2022-09-09T11:17:26;606.20;;;396.55;;
57231;SDS011;43488;46.934;8.276;2022-09-09T11:20:10;620.30;;;409.23;;
57231;SDS011;43488;46.934;8.276;2022-09-09T11:22:43;627.22;;;353.15;;
57231;SDS011;43488;46.934;8.276;2022-09-09T11:25:25;630.35;;;353.23;;
57231;SDS011;43488;46.934;8.276;2022-09-09T11:28:22;619.85;;;421.60;;
57231;SDS011;43488;46.934;8.276;2022-09-09T11:40:25;629.40;;;356.08;;
57231;SDS011;43488;46.934;8.276;2022-09-09T11:43:28;616.78;;;405.17;;
57231;SDS011;43488;46.934;8.276;2022-09-09T11:45:58;626.22;;;330.92;;
57231;SDS011;43488;46.934;8.276;2022-09-09T11:48:31;610.67;;;398.10;;
57231;SDS011;43488;46.934;8.276;2022-09-09T11:51:00;629.20;;;354.83;;
57231;SDS011;43488;46.934;8.276;2022-09-09T11:53:32;613.35;;;419.17;;
57231;SDS011;43488;46.934;8.276;2022-09-09T11:58:41;634.60;;;368.80;;
57231;SDS011;43488;46.934;8.276;2022-09-09T12:06:46;628.47;;;358.92;;
57231;SDS011;43488;46.934;8.276;2022-09-09T12:10:03;612.45;;;408.52;;
57231;SDS011;43488;46.934;8.276;2022-09-09T12:12:35;610.10;;;409.63;;
57231;SDS011;43488;46.934;8.276;2022-09-09T12:17:41;611.38;;;405.05;;
57231;SDS011;43488;46.934;8.276;2022-09-09T12:34:52;629.22;;;368.60;;
57231;SDS011;43488;46.934;8.276;2022-09-09T12:40:24;628.65;;;361.92;;
57231;SDS011;43488;46.934;8.276;2022-09-09T12:43:02;628.53;;;370.70;;
57231;SDS011;43488;46.934;8.276;2022-09-09T12:45:49;615.55;;;423.92;;
57231;SDS011;43488;46.934;8.276;2022-09-09T12:48:28;617.72;;;430.45;;
57231;SDS011;43488;46.934;8.276;2022-09-09T12:51:03;616.10;;;423.92;;
57231;SDS011;43488;46.934;8.276;2022-09-09T12:53:43;626.85;;;371.45;;
57231;SDS011;43488;46.934;8.276;2022-09-09T12:56:19;633.58;;;360.60;;
57231;SDS011;43488;46.934;8.276;2022-09-09T12:58:50;623.92;;;347.63;;
57231;SDS011;43488;46.934;8.276;2022-09-09T13:01:26;629.65;;;369.23;;
57231;SDS011;43488;46.934;8.276;2022-09-09T13:04:00;622.33;;;423.88;;
57231;SDS011;43488;46.934;8.276;2022-09-09T13:06:29;629.72;;;364.90;;
57231;SDS011;43488;46.934;8.276;2022-09-09T13:09:00;610.83;;;404.17;;
57231;SDS011;43488;46.934;8.276;2022-09-09T13:11:31;624.90;;;347.58;;
57231;SDS011;43488;46.934;8.276;2022-09-09T13:14:15;616.63;;;414.42;;
57231;SDS011;43488;46.934;8.276;2022-09-09T13:17:04;619.47;;;337.95;;
57231;SDS011;43488;46.934;8.276;2022-09-09T13:19:36;613.95;;;408.58;;
57231;SDS011;43488;46.934;8.276;2022-09-09T13:22:11;611.40;;;394.77;;
57231;SDS011;43488;46.934;8.276;2022-09-09T13:24:41;608.20;;;391.33;;
57231;SDS011;43488;46.934;8.276;2022-09-09T13:27:26;604.08;;;381.17;;
57231;SDS011;43488;46.934;8.276;2022-09-09T13:35:36;626.40;;;354.15;;
57231;SDS011;43488;46.934;8.276;2022-09-09T13:38:25;605.65;;;397.42;;
57231;SDS011;43488;46.934;8.276;2022-09-09T13:41:00;612.37;;;410.80;;
57231;SDS011;43488;46.934;8.276;2022-09-09T13:43:44;606.20;;;396.08;;
57231;SDS011;43488;46.934;8.276;2022-09-09T13:51:44;621.97;;;347.23;;
57231;SDS011;43488;46.934;8.276;2022-09-09T13:54:18;622.92;;;341.85;;
57231;SDS011;43488;46.934;8.276;2022-09-09T13:56:47;608.15;;;396.15;;
57231;SDS011;43488;46.934;8.276;2022-09-09T13:59:17;614.15;;;403.05;;
57231;SDS011;43488;46.934;8.276;2022-09-09T14:01:50;630.72;;;361.42;;
57231;SDS011;43488;46.934;8.276;2022-09-09T14:04:18;623.67;;;344.30;;
57231;SDS011;43488;46.934;8.276;2022-09-09T14:06:49;607.65;;;390.70;;
57231;SDS011;43488;46.934;8.276;2022-09-09T14:09:19;618.95;;;337.30;;
57231;SDS011;43488;46.934;8.276;2022-09-09T14:11:48;610.20;;;403.30;;
57231;SDS011;43488;46.934;8.276;2022-09-09T14:14:15;622.33;;;344.25;;
57231;SDS011;43488;46.934;8.276;2022-09-09T14:16:42;610.70;;;401.23;;
57231;SDS011;43488;46.934;8.276;2022-09-09T14:19:09;612.92;;;412.00;;
57231;SDS011;43488;46.934;8.276;2022-09-09T14:21:37;605.85;;;391.83;;
57231;SDS011;43488;46.934;8.276;2022-09-09T14:24:05;623.30;;;382.65;;
57231;SDS011;43488;46.934;8.276;2022-09-09T14:26:32;620.70;;;387.55;;
57231;SDS011;43488;46.934;8.276;2022-09-09T14:29:00;632.35;;;428.45;;
57231;SDS011;43488;46.934;8.276;2022-09-09T14:31:27;635.42;;;431.77;;
57231;SDS011;43488;46.934;8.276;2022-09-09T14:33:55;629.13;;;411.80;;
57231;SDS011;43488;46.934;8.276;2022-09-09T14:36:22;624.92;;;404.75;;
57231;SDS011;43488;46.934;8.276;2022-09-09T14:38:50;632.05;;;419.20;;
57231;SDS011;43488;46.934;8.276;2022-09-09T14:41:18;632.03;;;422.33;;
57231;SDS011;43488;46.934;8.276;2022-09-09T14:43:48;627.58;;;462.58;;
57231;SDS011;43488;46.934;8.276;2022-09-09T14:46:18;621.42;;;464.02;;
57231;SDS011;43488;46.934;8.276;2022-09-09T14:48:47;629.97;;;423.90;;
57231;SDS011;43488;46.934;8.276;2022-09-09T14:51:19;621.17;;;459.38;;
57231;SDS011;43488;46.934;8.276;2022-09-09T14:53:53;622.65;;;459.77;;
57231;SDS011;43488;46.934;8.276;2022-09-09T14:56:24;622.78;;;458.27;;
57231;SDS011;43488;46.934;8.276;2022-09-09T14:58:56;631.95;;;415.63;;
57231;SDS011;43488;46.934;8.276;2022-09-09T15:01:25;630.08;;;422.35;;
57231;SDS011;43488;46.934;8.276;2022-09-09T15:03:57;623.13;;;460.95;;
57231;SDS011;43488;46.934;8.276;2022-09-09T15:06:27;619.78;;;452.55;;
57231;SDS011;43488;46.934;8.276;2022-09-09T15:08:57;633.70;;;414.88;;
57231;SDS011;43488;46.934;8.276;2022-09-09T15:11:33;625.45;;;413.02;;
57231;SDS011;43488;46.934;8.276;2022-09-09T15:14:08;621.83;;;454.48;;
57231;SDS011;43488;46.934;8.276;2022-09-09T15:16:37;626.42;;;424.77;;
57231;SDS011;43488;46.934;8.276;2022-09-09T15:19:05;618.40;;;452.67;;
57231;SDS011;43488;46.934;8.276;2022-09-09T15:21:34;625.15;;;462.35;;
57231;SDS011;43488;46.934;8.276;2022-09-09T15:24:03;620.55;;;447.70;;
57231;SDS011;43488;46.934;8.276;2022-09-09T15:26:32;619.90;;;449.45;;
57231;SDS011;43488;46.934;8.276;2022-09-09T15:28:59;623.13;;;394.58;;
57231;SDS011;43488;46.934;8.276;2022-09-09T15:31:27;620.95;;;451.15;;
57231;SDS011;43488;46.934;8.276;2022-09-09T15:34:00;624.78;;;397.95;;
57231;SDS011;43488;46.934;8.276;2022-09-09T15:36:32;620.05;;;384.20;;
57231;SDS011;43488;46.934;8.276;2022-09-09T15:39:10;609.60;;;442.83;;
57231;SDS011;43488;46.934;8.276;2022-09-09T15:41:42;621.65;;;452.95;;
57231;SDS011;43488;46.934;8.276;2022-09-09T15:44:14;617.95;;;374.27;;
57231;SDS011;43488;46.934;8.276;2022-09-09T15:46:44;621.83;;;388.60;;
57231;SDS011;43488;46.934;8.276;2022-09-09T15:49:17;627.67;;;396.33;;
57231;SDS011;43488;46.934;8.276;2022-09-09T15:51:46;628.08;;;400.33;;
57231;SDS011;43488;46.934;8.276;2022-09-09T15:54:21;617.92;;;455.42;;
57231;SDS011;43488;46.934;8.276;2022-09-09T15:56:55;615.72;;;433.33;;
57231;SDS011;43488;46.934;8.276;2022-09-09T15:59:26;621.70;;;388.25;;
57231;SDS011;43488;46.934;8.276;2022-09-09T16:01:55;627.55;;;400.33;;
57231;SDS011;43488;46.934;8.276;2022-09-09T16:04:23;624.85;;;391.40;;
57231;SDS011;43488;46.934;8.276;2022-09-09T16:06:57;620.00;;;454.33;;
57231;SDS011;43488;46.934;8.276;2022-09-09T16:09:27;630.42;;;404.65;;
57231;SDS011;43488;46.934;8.276;2022-09-09T16:11:56;626.17;;;405.48;;
57231;SDS011;43488;46.934;8.276;2022-09-09T16:14:24;622.17;;;454.27;;
57231;SDS011;43488;46.934;8.276;2022-09-09T16:16:52;629.03;;;402.30;;
57231;SDS011;43488;46.934;8.276;2022-09-09T16:19:20;628.70;;;421.40;;
57231;SDS011;43488;46.934;8.276;2022-09-09T16:21:48;620.40;;;460.10;;
57231;SDS011;43488;46.934;8.276;2022-09-09T16:24:17;629.83;;;410.25;;
57231;SDS011;43488;46.934;8.276;2022-09-09T16:26:47;632.45;;;415.23;;
57231;SDS011;43488;46.934;8.276;2022-09-09T16:29:18;626.88;;;415.75;;
57231;SDS011;43488;46.934;8.276;2022-09-09T16:31:48;619.78;;;456.08;;
57231;SDS011;43488;46.934;8.276;2022-09-09T16:34:17;619.17;;;450.95;;
57231;SDS011;43488;46.934;8.276;2022-09-09T16:36:46;621.78;;;459.75;;
57231;SDS011;43488;46.934;8.276;2022-09-09T16:39:15;625.30;;;391.75;;
57231;SDS011;43488;46.934;8.276;2022-09-09T16:41:50;621.00;;;460.60;;